Lakeside, Nebraska
Current Conditions -  °F | °C
As of 5:53 AM on Thursday 30 Oct 2014 (Local Time) from KAIA Reporting Station
Clear Clear  
Wind Chill: 20°   Ceiling: Unl
Heat Index: 29°   Visibility: 10mi
Dew Point: 25°   Wind: 9mph
Humidity: 85%   Direction: 260°W
Pressure: 30.25"   Gusts: NA
Location:  42.06°N, 102.43°W
Report Text: KAIA 301153Z AUTO 26008KT 10SM CLR M02/M04 A3025 RMK AO2 SLP246 T10171039 10017 21028 53014
Loading
Personal Weather Stations






























Interactive Weather Map
Tropical Storm Tracking
New forecast layout! Learn more

10-Day Weather Forecast

Advertisements
Track Severe Weather on mobile